LOWILIRQ

Guest
Details From LOWI - Innsbruck Kranebitten
To LIRQ - Firenze
Flight Number -
Tags decoded
Created
Modified
Stats Distance 209 nm / 386 km
Max Altitude 0 ft / 0 m
Waypoints 5
Social Downloads 0
Likes 0
Share VATSIM

Download

Looking for another format? Having issues loading an existing format? Contact us
Advertisement - Login to hide

Notes

Requested: LOWI EKPIS NAXAV SUMIR VADIK ALBET LUMAV BOA MAREL LIRQ Unmatched points: EKPIS NAXAV LUMAV

Route

LOWI SUMIR ALBET BOA LIRQ

ID Type Via Altitude (ft/m) Position (lat/lon) Dist (leg/tot) Name
O LOWI APT - 0 / 0 47.26023 / 11.34397 - / 0 nm Innsbruck Kranebitten
SUMIR FIX - 0 / 0 46.25889 / 11.35972 60 / 60 nm
ALBET FIX - 0 / 0 45.42667 / 11.50917 50 / 110 nm
BOA VOR - 0 / 0 44.53694 / 11.29055 54 / 164 nm BOLOGNA VOR-DME
O LIRQ APT - 0 / 0 43.80998 / 11.20512 43 / 208 nm Firenze

Altitude Profile

Advertisement - Login to hide

Weather


0- 5 10 15 20 25 30 35+ Temperature / °C

Clouds and Precipitation
Forecast for 2018-09-20 18:00 UTC. Updated 5 hours ago

Ground ~20,000 ft ~40,000 ft Winds

LOWI

Details ICAO LOWI (INN)
Name Innsbruck Kranebitten
Region Austria
Timezone Europe/Vienna (UTC+2.0)
Stats Elevation 1,905 ft / 581 m (AMSL)
Location 47.260200° 11.344000°
Runways 1
Magnetic Variation 3.111° E

METAR

LOWI 201950Z VRB01KT CAVOK 16/11 Q1020 NOSIG

Decode

TAF

TAF LOWI 201715Z 2018/2118 VRB02KT CAVOK TX26/2114Z TN11/2105Z BECMG 2108/2110 10010KT 9999 SCT070 TEMPO 2114/2118 -SHRA FEW060TCU BKN070

Decode

Departure Runways

ID Width Length Bearing (true/mag) Surface Threshold Overrun Markings Lighting
08 148 ft / 45 m 6,544 ft / 1,995 m 80.93° / 77.82° ASPHALT 338 ft / 103 m 0 ft / 0 m PREC-APP CENTERLINE REIL-OMNI
26 148 ft / 45 m 6,544 ft / 1,995 m 260.95° / 257.84° ASPHALT 0 ft / 0 m 0 ft / 0 m PREC-APP CENTERLINE MALS REIL-OMNI

LIRQ

Details ICAO LIRQ (FLR)
Name Firenze
Region Italy
Timezone Europe/Rome (UTC+2.0)
Stats Elevation 142 ft / 43 m (AMSL)
Location 43.810000° 11.205100°
Runways 1
Magnetic Variation 2.959° E

METAR

LIRQ 201950Z 11006KT CAVOK 25/17 Q1016

Decode

TAF

TAF LIRQ 201700Z 2018/2118 VRB05KT 9999 SCT040

Decode

Destination Runways

ID Width Length Bearing (true/mag) Surface Threshold Overrun Markings Lighting
05 98 ft / 30 m 5,133 ft / 1,565 m 48.11° / 45.15° ASPHALT 344 ft / 105 m 0 ft / 0 m PREC-APP EDGE THRESHOLD SSALF REIL-OMNI
23 98 ft / 30 m 5,133 ft / 1,565 m 228.12° / 225.16° ASPHALT 1,909 ft / 582 m 0 ft / 0 m PREC-APP EDGE THRESHOLD REIL-OMNI

Approach Navaids

Runway Type Ident Frequency Range Bearing (true/mag) Slope Elevation
05 DME IFZ 110.30 MHz 18 nm / 33 km - - 144 ft / 44 m (AMSL)
05 LOC-ILS IFZ 110.30 MHz 18 nm / 33 km 48.10° / 45.14 ° - 131 ft / 40 m (AMSL)
05 GS IFZ 110.30 MHz 10 nm / 19 km 47.00° / 44.04 ° 3.00° 144 ft / 44 m (AMSL)

Popular Alternatives